Time;durP1;ratioP1;P1;durP2;ratioP2;P2;SDS_P1;SDS_P2;PMS_P1;PMS_P2;Temp;Humidity;BMP_temperature;BMP_pressure;BME280_temperature;BME280_humidity;BME280_pressure;Samples;Min_cycle;Max_cycle;Signal;HPM_P1;HPM_P2
2024/03/16 00:01:48;;;;;;;3.83;2.22;;;;;;;10.94;62.90;99113.06;4927942;29;20383;-71
2024/03/16 00:04:13;;;;;;;3.40;2.40;;;;;;;10.93;62.95;99116.63;4896202;29;20026;-72
2024/03/16 00:06:39;;;;;;;4.10;2.47;;;;;;;10.88;63.01;99108.25;4944920;29;20042;-72
2024/03/16 00:09:04;;;;;;;3.58;2.20;;;;;;;10.90;62.63;99109.84;4927361;29;20044;-71
2024/03/16 00:11:31;;;;;;;2.88;2.20;;;;;;;10.84;62.80;99100.66;4945325;29;20031;-71
2024/03/16 00:13:57;;;;;;;3.03;2.13;;;;;;;10.87;62.97;99107.44;4928328;29;20137;-71
2024/03/16 00:16:23;;;;;;;3.13;2.05;;;;;;;10.83;63.00;99093.78;4911695;29;20046;-71
2024/03/16 00:18:48;;;;;;;3.38;2.20;;;;;;;10.83;63.05;99093.78;4928453;29;20031;-71
2024/03/16 00:21:14;;;;;;;4.07;2.50;;;;;;;10.87;63.19;99097.00;4928404;29;20035;-71
2024/03/16 00:23:39;;;;;;;3.45;2.15;;;;;;;10.83;62.98;99096.38;4926947;29;20411;-71
2024/03/16 00:26:05;;;;;;;3.63;2.20;;;;;;;10.89;63.24;99097.72;4913097;29;20418;-72
2024/03/16 00:28:30;;;;;;;2.97;2.10;;;;;;;10.88;63.12;99093.44;4927659;29;20032;-71
2024/03/16 00:30:56;;;;;;;3.08;2.08;;;;;;;10.89;63.19;99091.66;4911364;29;20027;-72
2024/03/16 00:33:21;;;;;;;3.38;2.05;;;;;;;10.86;63.11;99090.09;4928561;29;20043;-71
2024/03/16 00:35:47;;;;;;;2.97;1.98;;;;;;;10.91;62.98;99090.63;4926002;29;20502;-72
2024/03/16 00:38:12;;;;;;;2.45;1.88;;;;;;;10.90;63.08;99088.13;4927778;29;20114;-71
2024/03/16 00:40:38;;;;;;;3.20;2.10;;;;;;;10.90;63.05;99086.31;4945555;29;20506;-71
2024/03/16 00:43:04;;;;;;;3.15;1.98;;;;;;;10.90;63.24;99086.31;4910797;29;20479;-71
2024/03/16 00:45:29;;;;;;;2.70;2.10;;;;;;;10.93;62.98;99086.13;4927709;29;20118;-72
2024/03/16 00:47:56;;;;;;;3.22;1.90;;;;;;;10.88;63.33;99072.56;4928096;29;20040;-71
2024/03/16 00:50:21;;;;;;;2.45;1.80;;;;;;;10.93;63.05;99083.50;4911012;29;20024;-71
2024/03/16 00:52:47;;;;;;;2.92;2.00;;;;;;;10.94;63.25;99085.19;4944891;29;20624;-72
2024/03/16 00:55:12;;;;;;;2.33;1.80;;;;;;;10.95;63.12;99073.75;4927538;29;20455;-71
2024/03/16 00:57:38;;;;;;;3.05;2.00;;;;;;;10.96;63.44;99085.03;4910100;29;20086;-72
2024/03/16 01:00:04;;;;;;;2.95;2.08;;;;;;;10.96;63.34;99074.59;4928024;29;20492;-72
2024/03/16 01:02:29;;;;;;;4.05;2.20;;;;;;;10.98;63.29;99078.75;4911104;29;20028;-72
2024/03/16 01:04:56;;;;;;;2.80;2.10;;;;;;;10.98;63.37;99070.94;4944063;29;20479;-72
2024/03/16 01:07:21;;;;;;;4.45;2.28;;;;;;;10.97;63.40;99071.03;4927817;29;20027;-72
2024/03/16 01:09:48;;;;;;;3.67;2.40;;;;;;;10.93;63.32;99065.22;4925929;29;20040;-72
2024/03/16 01:12:13;;;;;;;3.72;2.60;;;;;;;10.99;63.43;99076.97;4910904;29;20122;-72
2024/03/16 01:14:40;;;;;;;4.72;3.40;;;;;;;10.98;63.34;99070.09;4927463;29;20101;-72
2024/03/16 01:17:06;;;;;;;5.97;3.92;;;;;;;10.93;63.47;99059.16;4926668;29;20346;-72
2024/03/16 01:19:31;;;;;;;6.47;4.15;;;;;;;10.93;63.09;99060.00;4911052;29;20023;-73
2024/03/16 01:21:57;;;;;;;5.68;3.92;;;;;;;10.94;63.12;99055.59;4927676;29;20048;-72
2024/03/16 01:24:22;;;;;;;7.13;3.88;;;;;;;10.97;63.21;99069.25;4925827;29;20480;-72
2024/03/16 01:26:48;;;;;;;5.90;4.07;;;;;;;10.96;63.27;99059.78;4910892;29;20047;-73
2024/03/16 01:29:15;;;;;;;7.10;4.03;;;;;;;10.96;63.11;99061.53;4927292;29;20039;-72
2024/03/16 01:31:41;;;;;;;7.20;4.40;;;;;;;10.96;63.08;99066.75;4928384;29;20020;-72
2024/03/16 01:34:07;;;;;;;6.70;4.05;;;;;;;10.94;63.06;99069.50;4925931;29;20144;-72
2024/03/16 01:36:32;;;;;;;7.72;4.50;;;;;;;10.91;62.96;99067.13;4895190;29;20118;-72
2024/03/16 01:38:59;;;;;;;6.65;4.30;;;;;;;10.93;63.07;99078.28;4927569;29;20172;-72
2024/03/16 01:41:24;;;;;;;6.55;4.25;;;;;;;10.94;63.36;99079.09;4912288;29;20031;-72
2024/03/16 01:43:50;;;;;;;6.63;4.28;;;;;;;10.90;63.03;99075.88;4926792;29;20038;-76
2024/03/16 01:46:15;;;;;;;7.57;4.65;;;;;;;10.91;63.25;99074.94;4924484;29;20027;-77
2024/03/16 01:48:44;;;;;;;5.82;3.90;;;;;;;10.91;63.18;99082.78;4925202;29;20115;-72
2024/03/16 01:51:09;;;;;;;;;;;;;;;10.91;63.06;99082.78;4944704;29;20031;-72
2024/03/16 01:53:36;;;;;;;6.30;4.10;;;;;;;10.87;63.13;99078.72;4943925;29;20006;-71
2024/03/16 01:56:02;;;;;;;5.78;3.90;;;;;;;10.85;62.90;99081.44;4925542;29;20487;-72
2024/03/16 01:58:27;;;;;;;8.23;4.45;;;;;;;10.84;63.03;99087.59;4911613;29;20155;-72
2024/03/16 02:00:53;;;;;;;7.70;5.10;;;;;;;10.79;63.06;99081.03;4943717;29;20047;-72
2024/03/16 02:03:18;;;;;;;8.18;5.00;;;;;;;10.79;63.09;99075.81;4909836;29;20042;-72
2024/03/16 02:05:46;;;;;;;7.88;4.95;;;;;;;10.80;62.87;99090.53;4927273;29;20031;-73
2024/03/16 02:08:11;;;;;;;8.98;5.45;;;;;;;10.76;63.13;99083.88;4926630;29;20046;-72
2024/03/16 02:10:37;;;;;;;8.52;5.60;;;;;;;10.65;62.89;99074.19;4909959;29;20714;-71
2024/03/16 02:13:02;;;;;;;8.50;5.40;;;;;;;10.72;62.70;99083.28;4943206;29;20081;-72
2024/03/16 02:15:28;;;;;;;9.48;5.22;;;;;;;10.67;62.73;99080.13;4943077;29;20028;-71
2024/03/16 02:17:53;;;;;;;9.23;5.65;;;;;;;10.69;62.49;99093.94;4910147;29;20094;-72
2024/03/16 02:20:19;;;;;;;7.90;5.47;;;;;;;10.66;62.70;99094.97;4938463;29;20035;-72
2024/03/16 02:22:45;;;;;;;7.95;5.40;;;;;;;10.63;62.44;99095.19;4933097;29;20035;-71
2024/03/16 02:25:10;;;;;;;9.23;5.47;;;;;;;10.61;62.27;99093.63;4934914;28;20066;-72
2024/03/16 02:27:37;;;;;;;10.77;5.20;;;;;;;10.56;62.51;99087.91;4904801;29;20035;-71
2024/03/16 02:30:04;;;;;;;8.25;5.30;;;;;;;10.55;62.52;99094.03;4936653;29;20110;-71
2024/03/16 02:32:29;;;;;;;7.18;4.80;;;;;;;10.56;62.62;99095.72;4920544;29;20065;-72
2024/03/16 02:34:55;;;;;;;9.27;5.38;;;;;;;10.48;62.54;99097.13;4935926;29;20092;-71
2024/03/16 02:37:21;;;;;;;7.50;4.70;;;;;;;10.51;62.29;99101.25;4920705;29;20049;-72
2024/03/16 02:39:46;;;;;;;7.03;4.78;;;;;;;10.48;62.35;99104.94;4936168;29;20427;-71
2024/03/16 02:42:12;;;;;;;6.93;4.38;;;;;;;10.46;62.18;99100.75;4920542;29;20035;-71
2024/03/16 02:44:40;;;;;;;6.70;4.50;;;;;;;10.43;62.22;99103.59;4936370;29;20035;-71
2024/03/16 02:47:06;;;;;;;9.85;4.45;;;;;;;10.42;61.77;99107.13;4921440;29;20026;-71
2024/03/16 02:49:31;;;;;;;7.32;4.63;;;;;;;10.39;62.28;99113.41;4904421;29;20043;-72
2024/03/16 02:51:57;;;;;;;6.13;4.45;;;;;;;10.36;62.16;99111.00;4920453;29;20039;-71
2024/03/16 02:54:23;;;;;;;5.80;4.40;;;;;;;10.29;62.19;99107.13;4936113;28;20035;-71
2024/03/16 02:56:49;;;;;;;8.32;4.68;;;;;;;10.31;62.09;99121.75;4904733;29;20023;-71
2024/03/16 02:59:14;;;;;;;7.38;4.38;;;;;;;10.23;62.00;99113.59;4922549;29;20051;-71
2024/03/16 03:01:40;;;;;;;6.55;3.95;;;;;;;10.21;61.91;99115.47;4920077;29;20055;-71
2024/03/16 03:04:06;;;;;;;5.80;4.13;;;;;;;10.18;61.95;99114.84;4920454;29;20099;-71
2024/03/16 03:06:32;;;;;;;8.57;4.15;;;;;;;10.19;61.69;99121.75;4920288;29;20031;-71
2024/03/16 03:08:57;;;;;;;6.97;4.22;;;;;;;10.18;61.84;99126.13;4920173;29;20257;-72
2024/03/16 03:11:23;;;;;;;4.95;3.70;;;;;;;10.15;61.77;99123.72;4936142;29;20038;-71
2024/03/16 03:13:48;;;;;;;6.13;4.00;;;;;;;10.12;61.60;99122.16;4936403;29;20464;-72
2024/03/16 03:16:20;;;;;;;8.05;4.85;;;;;;;10.09;61.48;99126.75;4920044;29;20043;-72
2024/03/16 03:18:46;;;;;;;6.65;4.57;;;;;;;10.10;61.35;99133.63;4905985;29;20028;-71
2024/03/16 03:21:12;;;;;;;9.25;5.10;;;;;;;10.06;61.62;99140.84;4904506;29;20027;-71
2024/03/16 03:23:38;;;;;;;12.60;5.00;;;;;;;10.05;61.25;99140.94;4920214;29;20099;-71
2024/03/16 03:26:04;;;;;;;9.70;5.75;;;;;;;9.96;61.59;99137.16;4935928;29;20035;-71
2024/03/16 03:28:29;;;;;;;9.73;6.07;;;;;;;9.94;61.59;99139.06;4920069;29;20040;-72
2024/03/16 03:30:55;;;;;;;7.57;5.32;;;;;;;9.95;61.21;99146.78;4935806;29;20035;-71
2024/03/16 03:33:20;;;;;;;8.82;5.72;;;;;;;9.95;61.37;99145.94;4920100;29;20050;-72
2024/03/16 03:35:45;;;;;;;8.73;5.57;;;;;;;9.91;61.22;99144.47;4935691;29;20031;-72
2024/03/16 03:38:11;;;;;;;8.93;5.78;;;;;;;9.90;61.30;99151.47;4919395;29;20047;-72
2024/03/16 03:40:36;;;;;;;9.70;5.03;;;;;;;9.84;61.28;99143.22;4936906;29;20458;-72
2024/03/16 03:43:05;;;;;;;9.55;5.43;;;;;;;9.85;61.30;99150.94;4904166;29;20447;-72
2024/03/16 03:50:53;;;;;;;7.63;5.28;;;;;;;9.78;61.01;99157.50;4936673;29;20039;-71
2024/03/16 03:53:20;;;;;;;8.98;5.30;;;;;;;9.75;61.35;99161.13;4919983;29;20122;-74
2024/03/16 03:55:45;;;;;;;9.50;5.72;;;;;;;9.74;61.29;99156.88;4935154;29;20032;-71
2024/03/16 03:58:11;;;;;;;7.80;5.18;;;;;;;9.76;61.28;99162.81;4935015;29;20088;-71
2024/03/16 04:00:37;;;;;;;7.10;5.05;;;;;;;9.74;61.20;99162.09;4934889;29;20508;-71
2024/03/16 04:03:06;;;;;;;11.25;5.28;;;;;;;9.75;61.49;99173.34;4919146;29;20031;-70
2024/03/16 04:05:32;;;;;;;7.50;4.90;;;;;;;9.72;61.41;99165.72;4919251;29;20078;-72
2024/03/16 04:07:58;;;;;;;7.97;5.00;;;;;;;9.71;61.31;99164.91;4919191;29;20062;-72
2024/03/16 04:10:23;;;;;;;6.00;4.20;;;;;;;9.70;61.10;99157.19;4934717;29;20488;-71
2024/03/16 04:12:49;;;;;;;7.22;4.43;;;;;;;9.73;61.37;99164.78;4919152;29;20036;-71
2024/03/16 04:15:15;;;;;;;7.28;4.70;;;;;;;9.66;61.25;99156.56;4935936;29;20027;-71
2024/03/16 04:17:40;;;;;;;7.05;4.88;;;;;;;9.66;61.23;99161.75;4918975;29;20130;-73
2024/03/16 04:20:12;;;;;;;6.00;4.13;;;;;;;9.70;61.27;99165.00;4919088;29;20027;-71
2024/03/16 04:22:38;;;;;;;9.25;4.50;;;;;;;9.62;61.41;99165.50;4920262;29;20031;-72
2024/03/16 04:25:06;;;;;;;6.72;4.18;;;;;;;9.66;61.18;99169.59;4903174;29;20028;-72
2024/03/16 04:27:32;;;;;;;7.45;4.32;;;;;;;9.70;60.96;99178.03;4919246;29;20082;-72
2024/03/16 04:29:58;;;;;;;6.13;4.30;;;;;;;9.71;61.19;99183.16;4918714;29;20036;-72
2024/03/16 04:32:27;;;;;;;6.03;4.10;;;;;;;9.74;60.88;99187.31;4919261;29;20111;-72
2024/03/16 04:34:55;;;;;;;6.07;4.20;;;;;;;9.72;60.88;99176.97;4919474;29;20039;-72
2024/03/16 04:37:21;;;;;;;6.35;4.10;;;;;;;9.76;60.95;99194.09;4918951;29;20051;-72
2024/03/16 04:39:47;;;;;;;5.40;3.90;;;;;;;9.73;60.77;99186.47;4918321;29;20082;-71
2024/03/16 04:42:13;;;;;;;7.05;4.07;;;;;;;9.81;61.00;99201.63;4919230;29;20030;-74
2024/03/16 04:44:39;;;;;;;4.78;3.65;;;;;;;9.88;64.75;99202.91;4918140;29;20122;-77
2024/03/16 04:47:04;;;;;;;5.43;3.67;;;;;;;9.88;62.89;99205.50;4918987;29;20036;-76
2024/03/16 04:49:30;;;;;;;11.13;4.05;;;;;;;10.01;67.02;99202.91;4919645;29;20032;-73
2024/03/16 04:51:56;;;;;;;5.63;3.67;;;;;;;10.11;65.04;99208.34;4919159;29;20023;-78
2024/03/16 04:54:21;;;;;;;6.47;3.40;;;;;;;10.20;64.30;99218.19;4918943;29;20493;-74
2024/03/16 04:56:47;;;;;;;6.47;3.97;;;;;;;10.27;64.02;99208.16;4935849;29;20037;-74
2024/03/16 04:59:12;;;;;;;5.68;3.33;;;;;;;10.60;62.97;99215.50;4918769;29;20044;-74
2024/03/16 05:01:38;;;;;;;5.90;3.03;;;;;;;11.01;65.58;99221.41;4918692;29;20466;-74
2024/03/16 05:04:03;;;;;;;7.55;3.95;;;;;;;11.45;63.14;99221.78;4918693;29;20094;-75
2024/03/16 05:06:32;;;;;;;5.63;3.53;;;;;;;11.83;61.30;99216.38;4918698;29;20036;-74
2024/03/16 05:08:58;;;;;;;6.53;3.20;;;;;;;11.93;60.64;99222.59;4918699;29;20035;-75
2024/03/16 05:11:24;;;;;;;6.78;3.50;;;;;;;12.05;60.24;99214.78;4934352;29;20027;-75
2024/03/16 05:13:49;;;;;;;6.22;3.55;;;;;;;12.25;59.60;99218.53;4918249;29;20043;-75
2024/03/16 05:16:15;;;;;;;6.95;3.88;;;;;;;12.89;57.97;99210.13;4918395;29;20041;-74
2024/03/16 05:18:40;;;;;;;14.25;5.25;;;;;;;13.75;59.44;99216.38;4918254;29;20043;-74
2024/03/16 05:21:07;;;;;;;16.50;3.67;;;;;;;14.31;60.54;99214.44;4931413;29;20535;-75
2024/03/16 05:23:33;;;;;;;23.23;3.90;;;;;;;15.01;68.01;99220.72;4935852;29;20067;-74
2024/03/16 05:25:59;;;;;;;9.27;3.75;;;;;;;15.55;64.59;99221.25;4929736;29;20035;-73
2024/03/16 05:28:24;;;;;;;9.57;3.25;;;;;;;16.05;61.98;99217.69;4913977;29;20036;-75
2024/03/16 05:30:53;;;;;;;10.15;3.75;;;;;;;16.17;61.20;99213.09;4929974;29;20603;-73
2024/03/16 05:33:19;;;;;;;11.32;3.50;;;;;;;16.35;60.64;99215.84;4914219;29;20038;-74
2024/03/16 05:35:46;;;;;;;6.68;3.47;;;;;;;16.25;59.63;99218.47;4930000;29;20039;-74
2024/03/16 05:38:15;;;;;;;9.02;3.33;;;;;;;16.11;58.86;99221.53;4915266;29;20030;-75
2024/03/16 05:40:43;;;;;;;18.90;3.65;;;;;;;15.95;58.88;99221.28;4917484;29;20064;-73
2024/03/16 05:43:09;;;;;;;10.73;3.63;;;;;;;15.80;58.90;99226.16;4918576;29;20027;-73
2024/03/16 05:45:35;;;;;;;14.07;4.05;;;;;;;15.65;58.92;99220.44;4917988;29;20040;-72
2024/03/16 05:48:00;;;;;;;7.10;3.85;;;;;;;15.47;59.27;99222.91;4933826;29;20054;-73
2024/03/16 05:50:25;;;;;;;6.53;3.60;;;;;;;15.38;59.41;99224.56;4917798;29;20031;-73
2024/03/16 05:52:51;;;;;;;7.70;4.22;;;;;;;15.28;59.32;99221.09;4917465;29;20048;-72
2024/03/16 05:55:17;;;;;;;7.38;3.80;;;;;;;15.21;60.11;99223.41;4918713;29;20035;-79
2024/03/16 05:57:42;;;;;;;18.38;3.95;;;;;;;15.21;63.58;99226.03;4934680;29;20050;-73
2024/03/16 06:00:14;;;;;;;16.20;3.35;;;;;;;15.26;64.12;99226.47;4941076;29;20177;-74
2024/03/16 06:02:40;;;;;;;7.68;3.42;;;;;;;15.22;64.08;99222.44;4922978;29;20023;-73
2024/03/16 06:05:06;;;;;;;7.20;3.00;;;;;;;15.30;64.02;99222.59;4921349;29;20031;-75
2024/03/16 06:07:32;;;;;;;9.23;3.50;;;;;;;15.53;64.18;99214.47;4921142;29;20031;-73
2024/03/16 06:09:57;;;;;;;13.65;3.17;;;;;;;16.15;62.52;99228.22;4937002;29;20502;-74
2024/03/16 06:12:27;;;;;;;7.25;3.35;;;;;;;16.41;61.45;99223.19;4921051;29;20038;-74
2024/03/16 06:14:53;;;;;;;9.38;4.25;;;;;;;16.50;60.62;99228.56;4922183;29;20459;-74
2024/03/16 06:17:18;;;;;;;6.72;3.70;;;;;;;16.63;59.91;99214.09;4921056;29;20434;-74
2024/03/16 06:19:44;;;;;;;11.60;4.20;;;;;;;16.87;59.10;99222.47;4917519;29;20047;-75
2024/03/16 06:22:11;;;;;;;6.50;3.72;;;;;;;17.57;57.84;99221.94;4920418;29;20023;-74
2024/03/16 06:24:37;;;;;;;7.85;3.95;;;;;;;17.87;57.42;99226.03;4936941;28;20116;-75
2024/03/16 06:27:05;;;;;;;7.25;3.95;;;;;;;17.94;56.93;99211.25;4901389;29;20171;-73
2024/03/16 06:29:31;;;;;;;;;;;;;;;18.15;56.16;99231.22;4887542;29;20514;-73
2024/03/16 06:32:05;;;;;;;7.97;4.88;;;;;;;18.17;55.84;99231.88;4933244;29;19915;-72
2024/03/16 06:34:33;;;;;;;7.35;4.50;;;;;;;18.01;55.71;99233.44;4921754;29;20450;-74
2024/03/16 06:36:59;;;;;;;10.98;4.75;;;;;;;17.80;56.05;99233.72;4905824;29;20484;-72
2024/03/16 06:39:25;;;;;;;8.50;4.55;;;;;;;17.65;56.08;99222.03;4920677;29;20047;-73
2024/03/16 06:41:52;;;;;;;9.88;5.03;;;;;;;17.47;56.50;99238.69;4920762;29;20047;-72
2024/03/16 06:44:17;;;;;;;10.35;4.85;;;;;;;17.33;56.32;99236.53;4921127;29;20484;-74
2024/03/16 06:46:43;;;;;;;9.80;5.30;;;;;;;17.19;56.66;99245.81;4905247;29;20032;-72
2024/03/16 06:49:08;;;;;;;7.47;5.35;;;;;;;17.07;56.69;99244.34;4930320;29;20110;-74
2024/03/16 06:51:34;;;;;;;8.35;5.22;;;;;;;16.91;56.84;99242.31;4924228;29;20530;-73
2024/03/16 06:53:59;;;;;;;10.60;5.78;;;;;;;16.76;57.15;99252.47;4923474;29;20034;-74
2024/03/16 06:56:25;;;;;;;9.38;5.13;;;;;;;16.62;57.29;99248.50;4956106;29;20139;-72
2024/03/16 06:58:50;;;;;;;8.48;5.50;;;;;;;16.42;57.79;99235.34;4939287;29;20134;-72
2024/03/16 07:01:16;;;;;;;8.13;5.93;;;;;;;16.34;57.99;99247.59;4939228;29;20079;-72
2024/03/16 07:03:42;;;;;;;14.02;6.20;;;;;;;16.30;58.14;99249.66;4923594;29;20039;-72
2024/03/16 07:06:08;;;;;;;12.80;6.90;;;;;;;16.32;57.88;99249.53;4923812;29;20039;-73
2024/03/16 07:08:34;;;;;;;12.05;6.38;;;;;;;16.45;57.80;99245.63;4924152;29;20039;-73
2024/03/16 07:11:00;;;;;;;11.00;7.10;;;;;;;16.68;57.14;99255.81;4923691;29;20106;-73
2024/03/16 07:13:25;;;;;;;11.00;7.32;;;;;;;16.96;56.47;99261.16;4923637;29;20035;-74
2024/03/16 07:15:51;;;;;;;14.15;8.02;;;;;;;17.07;56.17;99260.97;4939509;29;20467;-73
2024/03/16 07:18:17;;;;;;;12.73;7.80;;;;;;;17.33;55.53;99260.28;4923763;29;20059;-74
2024/03/16 07:20:43;;;;;;;12.02;7.50;;;;;;;17.44;55.18;99254.81;4923638;29;20027;-72
2024/03/16 07:23:08;;;;;;;12.45;7.78;;;;;;;18.25;53.94;99261.03;4923730;29;20079;-73
2024/03/16 07:25:34;;;;;;;10.25;7.88;;;;;;;18.79;53.13;99251.13;4923620;29;20458;-72
2024/03/16 07:27:59;;;;;;;11.75;7.65;;;;;;;19.74;51.44;99258.09;4907668;29;20039;-72
2024/03/16 07:30:25;;;;;;;9.77;7.07;;;;;;;20.56;49.85;99254.63;4956474;29;20035;-72
2024/03/16 07:32:51;;;;;;;10.77;7.30;;;;;;;21.25;48.79;99257.59;4923396;29;20027;-72
2024/03/16 07:35:16;;;;;;;10.13;6.78;;;;;;;22.05;46.97;99253.75;4939322;29;20406;-72
2024/03/16 07:37:42;;;;;;;10.50;6.35;;;;;;;22.59;45.76;99257.28;4923157;29;20032;-73
2024/03/16 07:40:13;;;;;;;8.73;6.75;;;;;;;23.67;43.74;99253.16;4956397;29;20031;-73
2024/03/16 07:42:42;;;;;;;9.32;6.97;;;;;;;25.05;40.77;99241.28;4924839;29;20066;-72
2024/03/16 07:45:08;;;;;;;8.48;6.20;;;;;;;26.24;38.56;99236.44;4923100;29;20035;-73
2024/03/16 07:47:33;;;;;;;9.20;6.47;;;;;;;27.30;36.77;99245.25;4923244;29;20121;-72
2024/03/16 07:49:59;;;;;;;7.68;5.88;;;;;;;27.67;35.98;99240.91;4907013;29;20031;-73
2024/03/16 07:52:25;;;;;;;6.97;5.85;;;;;;;27.45;36.51;99232.38;4922941;29;20119;-72
2024/03/16 07:54:50;;;;;;;8.00;6.15;;;;;;;26.66;37.55;99235.16;4923520;29;20036;-72
2024/03/16 07:57:16;;;;;;;8.77;5.93;;;;;;;25.95;38.74;99239.28;4922702;29;20402;-73
2024/03/16 07:59:41;;;;;;;8.00;6.35;;;;;;;25.38;39.35;99233.44;4938285;29;20059;-73
2024/03/16 08:02:07;;;;;;;8.23;6.28;;;;;;;25.59;39.05;99234.28;4938796;29;20524;-72
2024/03/16 08:04:34;;;;;;;7.00;6.10;;;;;;;25.77;38.78;99237.19;4922636;29;20063;-73
2024/03/16 08:07:00;;;;;;;8.07;5.90;;;;;;;25.43;39.41;99228.28;4938798;29;20031;-73
2024/03/16 08:09:26;;;;;;;7.40;5.97;;;;;;;26.26;38.52;99227.16;4938595;29;20102;-72
2024/03/16 08:11:52;;;;;;;8.68;6.60;;;;;;;26.94;37.69;99230.53;4938259;29;20051;-73
2024/03/16 08:14:18;;;;;;;8.23;6.20;;;;;;;27.66;36.48;99231.25;4938360;29;20031;-72
2024/03/16 08:16:43;;;;;;;7.55;6.28;;;;;;;27.11;37.04;99231.72;4922435;29;20051;-73
2024/03/16 08:19:09;;;;;;;8.20;6.30;;;;;;;26.63;37.88;99218.63;4906643;29;20031;-73
2024/03/16 08:21:36;;;;;;;8.07;6.78;;;;;;;26.58;37.56;99232.66;4937949;29;20039;-74
2024/03/16 08:24:01;;;;;;;7.88;6.78;;;;;;;27.24;36.76;99228.94;4938921;29;20031;-73
2024/03/16 08:26:27;;;;;;;7.35;6.47;;;;;;;27.70;36.39;99232.44;4906608;29;20470;-73
2024/03/16 08:28:54;;;;;;;7.60;6.32;;;;;;;28.04;35.55;99230.38;4922745;29;20031;-73
2024/03/16 08:31:19;;;;;;;8.43;6.65;;;;;;;28.33;34.91;99220.81;4921969;29;20035;-72
2024/03/16 08:33:45;;;;;;;10.10;7.13;;;;;;;28.75;34.50;99235.50;4937547;29;20042;-73
2024/03/16 08:36:10;;;;;;;10.32;7.47;;;;;;;29.06;34.04;99234.50;4936940;29;20073;-73
2024/03/16 08:38:36;;;;;;;8.35;6.60;;;;;;;29.27;33.56;99232.41;4921763;29;20036;-73
2024/03/16 08:41:02;;;;;;;8.77;6.60;;;;;;;29.34;33.14;99238.53;4922044;29;20031;-74
2024/03/16 08:43:28;;;;;;;7.95;6.75;;;;;;;29.22;33.28;99233.94;4955042;29;20122;-73
2024/03/16 08:45:53;;;;;;;8.45;6.88;;;;;;;28.69;34.03;99238.03;4921499;29;20415;-74
2024/03/16 08:48:19;;;;;;;7.63;6.80;;;;;;;28.55;33.85;99243.75;4905999;29;20047;-72
2024/03/16 08:50:44;;;;;;;7.55;6.72;;;;;;;28.22;34.12;99232.28;4955028;29;20042;-74
2024/03/16 08:53:10;;;;;;;8.18;6.90;;;;;;;27.67;34.96;99240.09;4906181;29;20046;-74
2024/03/16 08:55:35;;;;;;;7.57;6.75;;;;;;;28.08;34.51;99244.97;4936853;29;20081;-73
2024/03/16 08:58:01;;;;;;;7.85;7.05;;;;;;;28.34;34.20;99240.44;4921834;29;20035;-73
2024/03/16 09:00:26;;;;;;;8.85;6.35;;;;;;;28.25;34.53;99250.63;4921213;29;20047;-73
2024/03/16 09:02:52;;;;;;;8.73;6.47;;;;;;;28.75;33.80;99238.19;4937143;29;20042;-73
2024/03/16 09:05:18;;;;;;;7.63;6.68;;;;;;;29.02;33.51;99246.78;4905787;29;20035;-73
2024/03/16 09:07:44;;;;;;;8.43;6.30;;;;;;;29.23;32.98;99240.94;4936936;29;20039;-73
2024/03/16 09:10:12;;;;;;;7.50;6.20;;;;;;;29.30;32.71;99242.72;4937537;29;20427;-76
2024/03/16 09:12:37;;;;;;;7.15;6.43;;;;;;;29.50;32.29;99243.28;4922398;29;20062;-73
2024/03/16 09:15:08;;;;;;;7.00;6.18;;;;;;;29.61;32.21;99240.88;4921635;29;20063;-73
2024/03/16 09:17:33;;;;;;;7.65;6.25;;;;;;;29.65;32.63;99232.09;4922713;29;20027;-72
2024/03/16 09:20:06;;;;;;;6.65;5.95;;;;;;;29.56;32.30;99242.34;4921534;29;20077;-71
2024/03/16 09:22:31;;;;;;;7.00;6.30;;;;;;;28.77;32.98;99244.97;4923436;29;20027;-73
2024/03/16 09:24:58;;;;;;;7.03;6.28;;;;;;;28.03;34.20;99244.00;4937202;29;20537;-73
2024/03/16 09:27:23;;;;;;;8.30;6.22;;;;;;;27.50;34.57;99250.50;4921194;29;20031;-73
2024/03/16 09:29:49;;;;;;;7.20;6.30;;;;;;;27.95;34.29;99243.22;4937066;29;20027;-73
2024/03/16 09:32:14;;;;;;;9.32;6.22;;;;;;;27.40;35.52;99240.25;4905279;29;20046;-73
2024/03/16 09:34:39;;;;;;;8.55;6.35;;;;;;;27.37;35.51;99238.00;4921112;29;20478;-74
2024/03/16 09:37:05;;;;;;;6.70;5.90;;;;;;;27.28;35.81;99229.38;4905519;29;20031;-72
2024/03/16 09:39:30;;;;;;;7.13;6.18;;;;;;;27.13;36.03;99235.00;4921088;29;20098;-72
2024/03/16 09:41:57;;;;;;;6.68;5.97;;;;;;;27.19;35.88;99236.00;4953941;29;20062;-74
2024/03/16 09:44:22;;;;;;;6.75;6.05;;;;;;;27.31;35.58;99228.97;4954018;29;20086;-73
2024/03/16 09:46:48;;;;;;;6.68;5.82;;;;;;;26.45;37.21;99230.81;4905104;29;20031;-72
2024/03/16 09:49:15;;;;;;;6.93;5.57;;;;;;;25.98;37.70;99233.56;4920777;29;20051;-71
2024/03/16 09:51:40;;;;;;;6.85;6.13;;;;;;;26.43;36.74;99224.88;4905548;29;20499;-72
2024/03/16 09:54:08;;;;;;;7.93;5.85;;;;;;;26.70;36.38;99241.72;4905106;29;20089;-72
2024/03/16 09:56:37;;;;;;;6.28;5.47;;;;;;;26.81;36.10;99226.88;4921573;29;20504;-75
2024/03/16 09:59:06;;;;;;;8.07;6.25;;;;;;;26.34;36.02;99239.50;4905240;29;20039;-73
2024/03/16 10:01:34;;;;;;;7.45;6.05;;;;;;;25.71;36.20;99231.84;4921086;29;20487;-73
2024/03/16 10:04:00;;;;;;;8.68;6.40;;;;;;;26.03;35.51;99222.25;4937026;29;20031;-72
2024/03/16 10:06:25;;;;;;;7.18;6.05;;;;;;;25.92;35.89;99226.31;4920711;29;20058;-73
2024/03/16 10:09:12;;;;;;;6.90;6.13;;;;;;;25.75;35.77;99219.72;4908646;29;20027;-73
2024/03/16 10:11:39;;;;;;;7.43;5.85;;;;;;;25.48;36.44;99217.00;4927659;29;20039;-74
2024/03/16 10:14:07;;;;;;;7.53;6.10;;;;;;;25.81;36.28;99219.72;4940587;29;20043;-72
2024/03/16 10:16:33;;;;;;;7.72;6.03;;;;;;;25.94;36.41;99223.44;4924909;29;20465;-73
2024/03/16 10:18:58;;;;;;;7.45;6.10;;;;;;;25.40;37.32;99214.50;4909139;29;20186;-74
2024/03/16 10:21:27;;;;;;;8.13;6.10;;;;;;;25.23;37.48;99206.81;4924775;29;20110;-73
2024/03/16 10:23:53;;;;;;;6.50;5.82;;;;;;;25.05;37.33;99211.91;4940855;29;20053;-73
2024/03/16 10:26:19;;;;;;;7.70;5.97;;;;;;;24.98;37.64;99205.72;4924518;29;20041;-73
2024/03/16 10:28:44;;;;;;;7.13;6.43;;;;;;;24.86;37.65;99208.09;4924353;29;20106;-73
2024/03/16 10:31:10;;;;;;;7.57;6.07;;;;;;;24.54;38.07;99194.38;4939833;29;20486;-74
2024/03/16 10:33:36;;;;;;;6.60;5.72;;;;;;;24.44;38.30;99210.72;4924177;29;20463;-73
2024/03/16 10:36:02;;;;;;;7.65;6.25;;;;;;;24.25;38.36;99193.56;4924437;29;20031;-71
2024/03/16 10:38:29;;;;;;;8.15;6.63;;;;;;;24.12;38.68;99198.81;4939839;29;20466;-73
2024/03/16 10:40:55;;;;;;;8.25;6.35;;;;;;;24.31;38.29;99198.13;4924235;29;20411;-73
2024/03/16 10:43:20;;;;;;;7.32;5.97;;;;;;;24.50;38.11;99187.78;4908441;29;20033;-73
2024/03/16 10:45:46;;;;;;;7.05;5.80;;;;;;;24.55;38.25;99175.47;4923901;29;20031;-72
2024/03/16 10:48:13;;;;;;;7.97;6.32;;;;;;;24.63;38.11;99173.72;4924050;29;20023;-73
2024/03/16 10:50:39;;;;;;;6.82;5.60;;;;;;;24.74;37.79;99195.31;4924682;29;20063;-73
2024/03/16 10:53:05;;;;;;;8.35;5.90;;;;;;;24.82;37.89;99183.66;4923991;29;20035;-73
2024/03/16 10:55:30;;;;;;;6.78;5.82;;;;;;;24.82;37.75;99180.16;4924201;29;20035;-73
2024/03/16 10:57:56;;;;;;;8.05;5.95;;;;;;;24.82;37.53;99169.50;4923885;29;20038;-74
2024/03/16 11:00:34;;;;;;;6.10;5.50;;;;;;;24.81;37.41;99178.50;4923607;29;20051;-74
2024/03/16 11:03:12;;;;;;;7.00;5.72;;;;;;;24.74;37.65;99170.47;4940163;29;20035;-72
2024/03/16 11:05:48;;;;;;;8.52;5.65;;;;;;;24.64;37.75;99156.69;4926598;29;20027;-72
2024/03/16 11:08:14;;;;;;;6.30;5.43;;;;;;;24.53;37.81;99161.53;4940763;29;20113;-73
2024/03/16 11:10:39;;;;;;;6.22;5.60;;;;;;;24.46;37.72;99168.66;4956530;29;20530;-73
2024/03/16 11:13:20;;;;;;;7.90;5.65;;;;;;;24.36;37.81;99154.88;4939202;29;20030;-72
2024/03/16 11:15:46;;;;;;;6.20;5.45;;;;;;;24.25;38.02;99150.09;4924303;29;20061;-72
2024/03/16 11:18:18;;;;;;;6.18;5.53;;;;;;;24.10;38.22;99163.50;4907852;28;20450;-74
2024/03/16 11:20:47;;;;;;;6.32;5.38;;;;;;;23.99;38.17;99160.38;4956230;29;20089;-72
2024/03/16 11:23:23;;;;;;;6.72;5.63;;;;;;;23.86;38.42;99154.09;4924638;29;20530;-72
2024/03/16 11:25:49;;;;;;;6.93;5.38;;;;;;;23.59;38.72;99157.31;4939854;29;20039;-73
2024/03/16 11:28:18;;;;;;;7.30;5.68;;;;;;;23.50;39.01;99158.50;4939412;29;20030;-73
2024/03/16 11:30:44;;;;;;;6.72;5.47;;;;;;;23.16;39.32;99153.84;4923146;29;20031;-73
2024/03/16 11:33:22;;;;;;;6.68;5.82;;;;;;;22.70;39.97;99139.75;4923343;29;20034;-73
2024/03/16 11:35:47;;;;;;;7.40;5.63;;;;;;;22.48;40.43;99143.38;4924111;29;20042;-72